createdAt,value
2023-01-13T00:01:28.187Z,54.20
2023-01-13T00:03:57.344Z,57.10
2023-01-13T00:06:26.302Z,50.30
2023-01-13T00:08:54.712Z,54.60
2023-01-13T00:11:23.491Z,56.20
2023-01-13T00:13:51.722Z,56.40
2023-01-13T00:16:20.972Z,52.60
2023-01-13T00:18:51.276Z,55.80
2023-01-13T00:21:22.375Z,54.30
2023-01-13T00:23:54.124Z,52.50
2023-01-13T00:26:28.170Z,52.60
2023-01-13T00:28:58.483Z,55.10
2023-01-13T00:31:29.319Z,45.80
2023-01-13T00:33:59.577Z,42.50
2023-01-13T00:36:29.319Z,46.70
2023-01-13T00:38:58.073Z,45.30
2023-01-13T00:41:27.543Z,44.20
2023-01-13T00:43:55.608Z,48.00
2023-01-13T00:46:24.026Z,51.60
2023-01-13T00:48:52.347Z,48.00
2023-01-13T00:51:21.916Z,39.00
2023-01-13T00:53:52.004Z,41.10
2023-01-13T00:56:39.256Z,50.00
2023-01-13T00:59:12.278Z,44.40
2023-01-13T01:01:41.442Z,48.10
2023-01-13T01:06:37.911Z,57.40
2023-01-13T01:09:06.876Z,50.00
2023-01-13T01:11:35.309Z,44.00
2023-01-13T01:14:04.379Z,43.50
2023-01-13T01:16:34.176Z,46.90
2023-01-13T01:19:03.676Z,40.30
2023-01-13T01:24:02.883Z,38.60
2023-01-13T01:26:31.961Z,45.40
2023-01-13T01:31:33.552Z,42.80
2023-01-13T01:34:01.981Z,42.60
2023-01-13T01:36:30.475Z,45.40
2023-01-13T01:39:00.078Z,44.30
2023-01-13T01:41:32.512Z,44.10
2023-01-13T01:44:38.402Z,36.80
2023-01-13T01:47:06.712Z,43.90
2023-01-13T01:49:37.367Z,36.60
2023-01-13T01:52:39.164Z,41.30
2023-01-13T01:55:34.601Z,45.70
2023-01-13T01:58:15.515Z,45.60
2023-01-13T02:00:44.228Z,44.00
2023-01-13T02:03:13.217Z,42.90
2023-01-13T02:05:41.686Z,41.10
2023-01-13T02:08:12.649Z,45.10
2023-01-13T02:10:42.984Z,42.90
2023-01-13T02:13:13.653Z,42.60
2023-01-13T02:15:51.053Z,44.30
2023-01-13T02:18:37.974Z,42.90
2023-01-13T02:21:40.042Z,43.70
2023-01-13T02:24:51.450Z,45.50
2023-01-13T02:27:25.400Z,44.00
2023-01-13T02:30:50.817Z,48.60
2023-01-13T02:33:49.336Z,46.10
2023-01-13T02:36:35.313Z,51.00
2023-01-13T02:39:16.911Z,46.70
2023-01-13T02:42:07.822Z,46.10
2023-01-13T02:44:59.031Z,46.60
2023-01-13T02:47:31.193Z,45.60
2023-01-13T02:50:04.068Z,42.60
2023-01-13T02:52:38.272Z,41.80
2023-01-13T02:55:23.685Z,42.60
2023-01-13T02:57:54.195Z,41.90
2023-01-13T03:00:23.898Z,40.70
2023-01-13T03:02:52.556Z,40.40
2023-01-13T03:05:20.885Z,42.40
2023-01-13T03:08:01.801Z,43.30
2023-01-13T03:10:33.500Z,43.70
2023-01-13T03:13:04.629Z,45.30
2023-01-13T03:16:06.519Z,49.50
2023-01-13T03:18:48.006Z,49.70
2023-01-13T03:21:25.567Z,51.60
2023-01-13T03:23:58.501Z,48.10
2023-01-13T03:26:35.784Z,45.20
2023-01-13T03:29:24.597Z,46.40
2023-01-13T03:32:05.806Z,43.80
2023-01-13T03:34:45.953Z,45.00
2023-01-13T03:37:17.636Z,46.70
2023-01-13T03:39:54.966Z,43.40
2023-01-13T03:42:26.379Z,40.60
2023-01-13T03:45:01.581Z,48.50
2023-01-13T03:47:49.387Z,46.60
2023-01-13T03:50:23.517Z,49.50
2023-01-13T03:53:15.795Z,50.70
2023-01-13T03:55:48.850Z,43.40
2023-01-13T03:58:35.436Z,45.40
2023-01-13T04:01:35.315Z,42.70
2023-01-13T04:04:07.226Z,42.40
2023-01-13T04:06:50.605Z,42.50
2023-01-13T04:09:21.207Z,43.80
2023-01-13T04:11:56.640Z,43.70
2023-01-13T04:14:26.166Z,44.50
2023-01-13T04:16:57.252Z,42.30
2023-01-13T04:19:25.380Z,42.80
2023-01-13T04:21:53.409Z,44.60
2023-01-13T04:24:21.697Z,42.70
2023-01-13T04:26:50.666Z,46.80
2023-01-13T04:29:18.729Z,47.20
2023-01-13T04:31:46.911Z,48.00
2023-01-13T04:34:15.075Z,49.60
2023-01-13T04:36:43.799Z,49.50
2023-01-13T04:39:12.483Z,52.80
2023-01-13T04:41:58.833Z,52.30
2023-01-13T04:44:27.565Z,49.00
2023-01-13T04:46:56.362Z,45.10
2023-01-13T04:49:24.801Z,55.00
2023-01-13T04:51:53.246Z,57.20
2023-01-13T04:54:21.670Z,48.20
2023-01-13T04:56:49.953Z,48.70
2023-01-13T04:59:18.010Z,50.30
2023-01-13T05:01:46.239Z,53.70
2023-01-13T05:04:15.632Z,56.10
2023-01-13T05:06:43.960Z,60.00
2023-01-13T05:09:13.482Z,50.80
2023-01-13T05:12:00.941Z,57.10
2023-01-13T05:14:48.037Z,53.10
2023-01-13T05:17:22.707Z,45.70
2023-01-13T05:19:51.295Z,42.70
2023-01-13T05:22:38.118Z,43.10
2023-01-13T05:25:24.659Z,42.20
2023-01-13T05:27:55.986Z,40.40
2023-01-13T05:30:26.771Z,40.80
2023-01-13T05:32:55.285Z,42.90
2023-01-13T05:35:24.480Z,46.80
2023-01-13T05:37:52.495Z,43.90
2023-01-13T05:40:39.169Z,47.40
2023-01-13T05:43:24.933Z,44.40
2023-01-13T05:46:05.664Z,43.70
2023-01-13T05:48:42.652Z,47.50
2023-01-13T05:51:12.875Z,47.30
2023-01-13T05:53:41.618Z,45.10
2023-01-13T05:56:11.321Z,43.50
2023-01-13T05:58:39.658Z,48.60
2023-01-13T06:01:09.547Z,52.80
2023-01-13T06:03:38.487Z,52.70
2023-01-13T06:06:09.193Z,53.90
2023-01-13T06:08:39.695Z,58.20
2023-01-13T06:11:08.222Z,64.00
2023-01-13T06:13:36.296Z,67.30
2023-01-13T06:16:05.092Z,67.80
2023-01-13T06:18:33.474Z,57.60
2023-01-13T06:21:01.842Z,57.10
2023-01-13T06:23:32.170Z,51.80
2023-01-13T06:26:08.483Z,126.80
2023-01-13T06:28:36.708Z,157.40
2023-01-13T06:31:07.906Z,96.50
2023-01-13T06:33:44.640Z,103.00
2023-01-13T06:36:26.999Z,109.50
2023-01-13T06:38:59.650Z,86.60
2023-01-13T06:41:48.423Z,81.60
2023-01-13T06:44:17.918Z,60.80
2023-01-13T06:46:46.861Z,52.20
2023-01-13T06:49:15.038Z,50.90
2023-01-13T06:51:44.421Z,46.10
2023-01-13T06:54:12.702Z,46.70
2023-01-13T06:56:40.768Z,46.60
2023-01-13T06:59:09.069Z,51.30
2023-01-13T07:01:37.232Z,49.60
2023-01-13T07:04:05.937Z,54.40
2023-01-13T07:06:34.029Z,59.20
2023-01-13T07:09:02.999Z,57.60
2023-01-13T07:11:31.337Z,54.30
2023-01-13T07:14:20.299Z,53.50
2023-01-13T07:16:48.520Z,57.50
2023-01-13T07:19:23.279Z,57.10
2023-01-13T07:21:52.708Z,52.90
2023-01-13T07:24:22.571Z,55.20
2023-01-13T07:26:52.156Z,57.40
2023-01-13T07:29:23.058Z,55.40
2023-01-13T07:31:51.157Z,61.80
2023-01-13T07:34:19.505Z,60.60
2023-01-13T07:36:47.951Z,61.30
2023-01-13T07:39:15.997Z,61.30
2023-01-13T07:42:02.687Z,61.90
2023-01-13T07:44:30.796Z,61.40
2023-01-13T07:46:58.917Z,57.00
2023-01-13T07:49:27.179Z,64.90
2023-01-13T07:51:55.244Z,61.20
2023-01-13T07:54:35.137Z,59.00
2023-01-13T07:57:08.697Z,54.40
2023-01-13T07:59:37.210Z,56.60
2023-01-13T08:02:05.483Z,57.20
2023-01-13T08:04:34.146Z,57.70
2023-01-13T08:07:02.469Z,55.20
2023-01-13T08:09:30.560Z,53.00
2023-01-13T08:12:17.367Z,59.20
2023-01-13T08:14:45.772Z,55.80
2023-01-13T08:17:14.058Z,59.40
2023-01-13T08:19:42.255Z,58.10
2023-01-13T08:22:10.390Z,60.30
2023-01-13T08:24:38.899Z,54.30
2023-01-13T08:27:07.212Z,56.50
2023-01-13T08:29:35.424Z,61.20
2023-01-13T08:32:03.503Z,59.90
2023-01-13T08:34:31.618Z,62.70
2023-01-13T08:36:59.839Z,59.10
2023-01-13T08:39:28.170Z,63.00
2023-01-13T08:41:56.651Z,69.50
2023-01-13T08:44:27.735Z,70.00
2023-01-13T08:46:56.566Z,69.50
2023-01-13T08:49:25.615Z,64.10
2023-01-13T08:51:54.308Z,63.90
2023-01-13T08:54:22.793Z,65.70
2023-01-13T08:56:51.073Z,63.60
2023-01-13T08:59:20.463Z,58.60
2023-01-13T09:01:48.780Z,63.90
2023-01-13T09:04:20.233Z,61.50
2023-01-13T09:06:49.461Z,55.40
2023-01-13T09:09:18.164Z,57.90
2023-01-13T09:12:07.945Z,53.80
2023-01-13T09:14:38.318Z,51.60
2023-01-13T09:17:07.944Z,51.40
2023-01-13T09:19:36.952Z,47.30
2023-01-13T09:22:05.306Z,47.20
2023-01-13T09:24:33.627Z,38.80
2023-01-13T09:27:02.314Z,41.90
2023-01-13T09:29:30.486Z,41.80
2023-01-13T09:31:58.496Z,31.00
2023-01-13T09:34:46.593Z,29.90
2023-01-13T09:37:14.987Z,28.80
2023-01-13T09:39:43.434Z,32.00
2023-01-13T09:42:33.375Z,30.80
2023-01-13T09:45:09.394Z,29.80
2023-01-13T09:48:00.103Z,29.30
2023-01-13T09:50:46.907Z,30.80
2023-01-13T09:53:40.474Z,30.70
2023-01-13T09:56:11.316Z,36.20
2023-01-13T09:58:39.583Z,35.00
2023-01-13T10:01:29.598Z,33.40
2023-01-13T10:04:02.712Z,27.30
2023-01-13T10:06:38.818Z,30.80
2023-01-13T10:09:30.860Z,30.00
2023-01-13T10:12:19.871Z,30.40
2023-01-13T10:14:54.642Z,28.20
2023-01-13T10:17:36.951Z,27.10
2023-01-13T10:20:08.323Z,29.00
2023-01-13T10:22:59.219Z,27.70
2023-01-13T10:25:55.062Z,25.10
2023-01-13T10:28:25.249Z,28.10
2023-01-13T10:30:53.691Z,28.90
2023-01-13T10:33:27.774Z,26.70
2023-01-13T10:36:02.471Z,31.20
2023-01-13T10:38:38.031Z,27.30
2023-01-13T10:41:19.580Z,29.10
2023-01-13T10:44:04.311Z,32.40
2023-01-13T10:46:35.325Z,28.40
2023-01-13T10:49:23.205Z,31.10
2023-01-13T10:51:51.335Z,29.10
2023-01-13T10:54:25.316Z,20.70
2023-01-13T10:57:13.989Z,17.30
2023-01-13T10:59:42.739Z,13.40
2023-01-13T11:02:25.295Z,15.30
2023-01-13T11:04:54.614Z,17.80
2023-01-13T11:07:30.927Z,19.00
2023-01-13T11:10:20.878Z,19.50
2023-01-13T11:13:01.272Z,17.60
2023-01-13T11:15:58.921Z,16.70
2023-01-13T11:18:52.111Z,16.50
2023-01-13T11:21:51.697Z,17.60
2023-01-13T11:24:45.168Z,19.40
2023-01-13T11:27:20.571Z,18.00
2023-01-13T11:30:10.030Z,18.70
2023-01-13T11:32:56.283Z,20.70
2023-01-13T11:35:25.368Z,23.00
2023-01-13T11:38:03.082Z,22.10
2023-01-13T11:40:37.936Z,20.10
2023-01-13T11:43:29.963Z,18.90
2023-01-13T11:46:01.226Z,20.30
2023-01-13T11:48:32.893Z,18.90
2023-01-13T11:51:00.901Z,13.20
2023-01-13T11:53:34.713Z,11.00
2023-01-13T11:56:08.969Z,12.50
2023-01-13T11:58:57.888Z,15.40
2023-01-13T12:01:32.790Z,15.50
2023-01-13T12:04:18.516Z,12.50
2023-01-13T12:06:50.659Z,13.10
2023-01-13T12:09:26.105Z,16.40
2023-01-13T12:12:45.077Z,17.80
2023-01-13T12:15:22.567Z,14.50
2023-01-13T12:18:07.626Z,18.60
2023-01-13T12:20:52.800Z,16.60
2023-01-13T12:23:30.201Z,15.60
2023-01-13T12:26:11.891Z,14.60
2023-01-13T12:29:00.799Z,15.20
2023-01-13T12:31:30.329Z,16.80
2023-01-13T12:34:14.441Z,17.00
2023-01-13T12:37:11.849Z,18.90
2023-01-13T12:39:39.868Z,18.30
2023-01-13T12:42:35.232Z,17.80
2023-01-13T12:45:12.363Z,18.30
2023-01-13T12:47:44.403Z,19.90
2023-01-13T12:50:27.320Z,16.90
2023-01-13T12:53:21.380Z,15.70
2023-01-13T12:55:53.364Z,17.00
2023-01-13T12:58:28.438Z,17.30
2023-01-13T13:01:12.109Z,18.00
2023-01-13T13:03:40.899Z,17.60
2023-01-13T13:06:20.866Z,15.70
2023-01-13T13:09:16.303Z,18.50
2023-01-13T13:11:58.260Z,21.10
2023-01-13T13:14:41.839Z,18.30
2023-01-13T13:17:28.581Z,21.10
2023-01-13T13:19:58.325Z,20.00
2023-01-13T13:22:26.338Z,23.50
2023-01-13T13:24:54.646Z,19.70
2023-01-13T13:27:27.735Z,20.10
2023-01-13T13:30:13.420Z,19.70
2023-01-13T13:32:44.786Z,20.00
2023-01-13T13:35:40.387Z,17.70
2023-01-13T13:38:49.923Z,20.20
2023-01-13T13:41:41.447Z,20.70
2023-01-13T13:44:37.577Z,20.60
2023-01-13T13:47:08.019Z,21.60
2023-01-13T13:49:41.424Z,18.30
2023-01-13T13:52:18.287Z,19.90
2023-01-13T13:54:52.116Z,19.00
2023-01-13T13:57:39.432Z,18.70
2023-01-13T14:00:33.515Z,20.00
2023-01-13T14:03:05.578Z,19.00
2023-01-13T14:05:36.193Z,21.60
2023-01-13T14:08:14.804Z,20.50
2023-01-13T14:10:45.234Z,22.50
2023-01-13T14:13:28.780Z,21.60
2023-01-13T14:16:15.543Z,20.70
2023-01-13T14:18:48.328Z,20.40
2023-01-13T14:21:19.606Z,22.60
2023-01-13T14:23:53.851Z,23.40
2023-01-13T14:26:27.894Z,22.60
2023-01-13T14:28:58.502Z,23.80
2023-01-13T14:31:27.321Z,23.90
2023-01-13T14:33:58.368Z,21.10
2023-01-13T14:36:32.712Z,24.20
2023-01-13T14:39:03.975Z,24.10
2023-01-13T14:41:43.104Z,27.90
2023-01-13T14:44:31.543Z,27.60
2023-01-13T14:47:03.333Z,28.70
2023-01-13T14:49:39.661Z,25.90
2023-01-13T14:52:21.144Z,24.90
2023-01-13T14:55:27.590Z,26.30
2023-01-13T14:58:23.432Z,26.20
2023-01-13T15:00:53.114Z,29.30
2023-01-13T15:03:21.811Z,28.20
2023-01-13T15:05:52.181Z,29.60
2023-01-13T15:08:27.505Z,28.80
2023-01-13T15:11:03.532Z,29.30
2023-01-13T15:13:52.828Z,29.30
2023-01-13T15:16:25.279Z,28.40
2023-01-13T15:18:56.236Z,26.10
2023-01-13T15:21:25.427Z,26.80
2023-01-13T15:23:53.704Z,29.40
2023-01-13T15:26:28.420Z,27.00
2023-01-13T15:28:59.252Z,27.30
2023-01-13T15:31:28.326Z,24.10
2023-01-13T15:33:57.243Z,29.60
2023-01-13T15:36:28.912Z,24.80
2023-01-13T15:38:58.405Z,25.50
2023-01-13T15:41:45.707Z,24.10
2023-01-13T15:44:34.063Z,26.60
2023-01-13T15:47:08.388Z,27.10
2023-01-13T15:49:42.227Z,26.90
2023-01-13T15:52:23.512Z,26.90
2023-01-13T15:54:53.136Z,26.50
2023-01-13T15:57:22.282Z,25.30
2023-01-13T15:59:51.973Z,24.00
2023-01-13T16:02:22.513Z,24.50
2023-01-13T16:04:53.912Z,25.10
2023-01-13T16:07:24.800Z,28.30
2023-01-13T16:09:53.585Z,26.20
2023-01-13T16:12:21.759Z,28.00
2023-01-13T16:14:49.840Z,26.70
2023-01-13T16:17:24.093Z,26.80
2023-01-13T16:19:52.327Z,27.40
2023-01-13T16:22:20.417Z,28.20
2023-01-13T16:24:48.705Z,28.70
2023-01-13T16:27:22.397Z,26.60
2023-01-13T16:29:51.860Z,26.40
2023-01-13T16:34:49.891Z,26.80
2023-01-13T16:37:25.898Z,27.40
2023-01-13T16:39:55.063Z,29.20
2023-01-13T16:42:24.174Z,27.40
2023-01-13T16:44:53.044Z,28.10
2023-01-13T16:47:22.885Z,28.40
2023-01-13T16:49:51.561Z,24.80
2023-01-13T16:52:19.604Z,24.70
2023-01-13T16:54:47.685Z,28.30
2023-01-13T16:57:15.966Z,26.50
2023-01-13T16:59:44.363Z,28.30
2023-01-13T17:02:15.118Z,25.10
2023-01-13T17:04:43.597Z,26.90
2023-01-13T17:07:16.730Z,25.40
2023-01-13T17:09:45.033Z,26.40
2023-01-13T17:12:13.422Z,25.20
2023-01-13T17:14:43.528Z,24.70
2023-01-13T17:17:43.174Z,25.20
2023-01-13T17:20:12.917Z,24.80
2023-01-13T17:22:42.415Z,25.30
2023-01-13T17:25:13.547Z,21.90
2023-01-13T17:27:42.320Z,23.90
2023-01-13T17:30:14.194Z,25.60
2023-01-13T17:32:42.461Z,25.50
2023-01-13T17:35:10.588Z,23.60
2023-01-13T17:37:38.617Z,24.70
2023-01-13T17:40:07.718Z,23.80
2023-01-13T17:42:37.261Z,24.00
2023-01-13T17:45:07.072Z,24.40
2023-01-13T17:47:35.345Z,23.20
2023-01-13T17:50:04.841Z,23.30
2023-01-13T17:55:01.701Z,26.80
2023-01-13T17:57:29.869Z,24.60
2023-01-13T17:59:59.724Z,25.10
2023-01-13T18:02:30.206Z,25.80
2023-01-13T18:04:58.514Z,24.90
2023-01-13T18:07:26.558Z,27.30
2023-01-13T18:09:54.852Z,28.00
2023-01-13T18:12:23.435Z,23.60
2023-01-13T18:14:51.587Z,22.40
2023-01-13T18:17:19.684Z,22.00
2023-01-13T18:20:06.455Z,23.10
2023-01-13T18:22:52.851Z,26.00
2023-01-13T18:25:39.372Z,26.20
2023-01-13T18:28:07.645Z,25.80
2023-01-13T18:30:35.770Z,24.10
2023-01-13T18:33:04.186Z,23.60
2023-01-13T18:35:32.463Z,23.20
2023-01-13T18:38:00.433Z,23.60
2023-01-13T18:40:28.606Z,23.10
2023-01-13T18:42:59.033Z,26.20
2023-01-13T18:45:29.951Z,21.20
2023-01-13T18:48:00.823Z,22.40
2023-01-13T18:50:30.515Z,23.60
2023-01-13T18:52:59.039Z,20.40
2023-01-13T18:55:28.821Z,22.40
2023-01-13T18:57:57.286Z,21.00
2023-01-13T19:00:27.253Z,21.30
2023-01-13T19:05:36.329Z,19.60
2023-01-13T19:08:05.539Z,21.80
2023-01-13T19:10:33.763Z,21.00
2023-01-13T19:13:02.321Z,20.90
2023-01-13T19:15:30.759Z,17.80
2023-01-13T19:17:58.834Z,20.50
2023-01-13T19:20:26.880Z,19.80
2023-01-13T19:22:55.084Z,21.00
2023-01-13T19:25:23.362Z,22.60
2023-01-13T19:27:51.634Z,21.20
2023-01-13T19:30:19.932Z,19.20
2023-01-13T19:32:48.078Z,20.50
2023-01-13T19:35:18.201Z,21.00
2023-01-13T19:37:46.989Z,20.00
2023-01-13T19:40:15.811Z,18.20
2023-01-13T19:43:13.241Z,18.60
2023-01-13T19:45:41.306Z,19.50
2023-01-13T19:48:09.526Z,20.30
2023-01-13T19:50:41.570Z,20.10
2023-01-13T19:53:16.653Z,20.50
2023-01-13T19:55:48.399Z,21.00
2023-01-13T19:58:20.817Z,21.20
2023-01-13T20:00:49.160Z,18.30
2023-01-13T20:03:20.842Z,18.00
2023-01-13T20:05:49.714Z,20.60
2023-01-13T20:08:22.667Z,18.70
2023-01-13T20:11:11.034Z,28.00
2023-01-13T20:13:39.267Z,21.20
2023-01-13T20:16:07.931Z,81.40
2023-01-13T20:18:37.323Z,56.70
2023-01-13T20:23:34.552Z,51.80
2023-01-13T20:26:02.653Z,33.30
2023-01-13T20:28:30.699Z,37.00
2023-01-13T20:30:58.697Z,43.30
2023-01-13T20:33:26.818Z,50.50
2023-01-13T20:35:58.637Z,32.60
2023-01-13T20:38:26.896Z,45.00
2023-01-13T20:40:59.471Z,38.50
2023-01-13T20:43:27.817Z,40.50
2023-01-13T20:45:55.923Z,26.60
2023-01-13T20:48:24.195Z,33.70
2023-01-13T20:50:54.339Z,29.50
2023-01-13T20:53:22.691Z,37.60
2023-01-13T20:55:51.066Z,29.10
2023-01-13T20:58:19.136Z,31.10
2023-01-13T21:00:48.402Z,32.40
2023-01-13T21:03:16.515Z,36.20
2023-01-13T21:05:44.579Z,39.90
2023-01-13T21:08:12.759Z,31.10
2023-01-13T21:10:40.957Z,47.30
2023-01-13T21:13:29.673Z,39.00
2023-01-13T21:15:58.076Z,166.80
2023-01-13T21:18:45.078Z,65.30
2023-01-13T21:21:13.761Z,95.70
2023-01-13T21:23:43.805Z,51.90
2023-01-13T21:26:14.941Z,53.20
2023-01-13T21:28:42.933Z,46.20
2023-01-13T21:31:11.615Z,33.20
2023-01-13T21:33:39.978Z,34.50
2023-01-13T21:36:11.117Z,39.20
2023-01-13T21:38:39.824Z,41.80
2023-01-13T21:41:09.311Z,44.50
2023-01-13T21:43:56.303Z,32.80
2023-01-13T21:46:43.483Z,27.90
2023-01-13T21:49:11.781Z,25.70
2023-01-13T21:51:40.066Z,33.30
2023-01-13T21:54:08.081Z,44.20
2023-01-13T21:56:36.077Z,45.10
2023-01-13T21:59:04.145Z,61.10
2023-01-13T22:01:32.409Z,62.00
2023-01-13T22:04:12.651Z,56.80
2023-01-13T22:06:40.850Z,54.30
2023-01-13T22:09:08.937Z,53.60
2023-01-13T22:11:37.112Z,60.30
2023-01-13T22:14:11.185Z,50.80
2023-01-13T22:16:42.361Z,39.80
2023-01-13T22:19:10.852Z,28.60
2023-01-13T22:21:40.048Z,34.90
2023-01-13T22:24:08.349Z,48.10
2023-01-13T22:26:36.594Z,57.80
2023-01-13T22:29:04.673Z,62.60
2023-01-13T22:31:32.774Z,65.50
2023-01-13T22:34:01.326Z,66.20
2023-01-13T22:36:29.505Z,61.70
2023-01-13T22:39:00.394Z,63.80
2023-01-13T22:41:28.949Z,58.70
2023-01-13T22:43:57.352Z,53.20
2023-01-13T22:46:25.662Z,62.90
2023-01-13T22:48:56.045Z,68.70
2023-01-13T22:51:25.219Z,62.40
2023-01-13T22:53:54.381Z,57.80
2023-01-13T22:56:24.917Z,52.60
2023-01-13T22:58:58.428Z,53.70
2023-01-13T23:01:32.902Z,57.60
2023-01-13T23:04:02.237Z,59.20
2023-01-13T23:06:33.299Z,52.80
2023-01-13T23:09:01.754Z,55.80
2023-01-13T23:11:30.655Z,51.20
2023-01-13T23:14:04.186Z,52.10
2023-01-13T23:16:35.615Z,52.70
2023-01-13T23:19:05.189Z,49.90
2023-01-13T23:21:36.821Z,52.00
2023-01-13T23:24:07.152Z,46.60
2023-01-13T23:26:35.837Z,57.00
2023-01-13T23:29:09.264Z,55.80
2023-01-13T23:31:38.142Z,56.20
2023-01-13T23:34:06.306Z,54.80
2023-01-13T23:36:37.194Z,63.10
2023-01-13T23:39:05.327Z,54.30
2023-01-13T23:41:33.348Z,56.20
2023-01-13T23:44:01.761Z,54.10
2023-01-13T23:46:32.836Z,64.00
2023-01-13T23:49:02.713Z,59.60
2023-01-13T23:51:31.013Z,60.50
2023-01-13T23:54:00.010Z,55.00
2023-01-13T23:56:30.822Z,59.30
2023-01-13T23:58:59.397Z,66.40
